createdAt,value
2019-05-15T00:00:32.541Z,84.64
2019-05-15T00:01:29.333Z,84.74
2019-05-15T00:02:29.228Z,84.26
2019-05-15T00:03:29.121Z,84.64
2019-05-15T00:04:29.015Z,85.02
2019-05-15T00:05:29.204Z,83.88
2019-05-15T00:06:28.819Z,84.45
2019-05-15T00:07:29.448Z,84.07
2019-05-15T00:08:28.818Z,84.83
2019-05-15T00:09:28.723Z,85.11
2019-05-15T00:10:28.778Z,85.49
2019-05-15T00:11:28.754Z,84.92
2019-05-15T00:12:28.482Z,85.21
2019-05-15T00:13:28.382Z,85.78
2019-05-15T00:14:28.789Z,86.44
2019-05-15T00:15:27.999Z,86.44
2019-05-15T00:16:29.051Z,86.07
2019-05-15T00:17:28.337Z,85.78
2019-05-15T00:18:28.182Z,86.16
2019-05-15T00:19:28.465Z,86.63
2019-05-15T00:20:29.345Z,87.58
2019-05-15T00:21:28.797Z,87.49
2019-05-15T00:22:29.020Z,87.49
2019-05-15T00:23:28.939Z,86.63
2019-05-15T00:24:28.732Z,88.15
2019-05-15T00:25:28.290Z,87.87
2019-05-15T00:26:26.696Z,88.24
2019-05-15T00:27:28.382Z,88.53
2019-05-15T00:28:28.042Z,89.48
2019-05-15T00:29:28.732Z,90.52
2019-05-15T00:30:26.298Z,91.66
2019-05-15T00:31:26.166Z,91.19
2019-05-15T00:32:28.104Z,92.33
2019-05-15T00:33:25.959Z,92.23
2019-05-15T00:34:25.851Z,92.04
2019-05-15T00:35:28.569Z,91.56
2019-05-15T00:36:25.638Z,92.04
2019-05-15T00:37:25.534Z,91.94
2019-05-15T00:38:25.428Z,92.33
2019-05-15T00:39:25.325Z,93.46
2019-05-15T00:40:25.215Z,93.27
2019-05-15T00:41:25.111Z,93.32
2019-05-15T00:42:25.006Z,93.94
2019-05-15T00:43:24.900Z,94.03
2019-05-15T00:44:24.793Z,93.65
2019-05-15T00:45:24.688Z,93.65
2019-05-15T00:46:24.590Z,93.65
2019-05-15T00:47:24.479Z,94.23
2019-05-15T00:48:24.372Z,94.32
2019-05-15T00:49:24.351Z,94.23
2019-05-15T00:50:24.160Z,94.13
2019-05-15T00:51:24.051Z,94.46
2019-05-15T00:52:23.947Z,94.42
2019-05-15T00:53:23.844Z,94.79
2019-05-15T00:54:23.737Z,94.32
2019-05-15T00:55:23.631Z,94.32
2019-05-15T00:56:23.526Z,94.70
2019-05-15T00:57:23.420Z,94.79
2019-05-15T00:58:23.320Z,93.94
2019-05-15T00:59:26.699Z,94.03
2019-05-15T01:00:23.104Z,94.03
2019-05-15T01:01:22.997Z,94.79
2019-05-15T01:02:22.893Z,94.89
2019-05-15T01:03:22.786Z,94.98
2019-05-15T01:04:22.680Z,94.98
2019-05-15T01:05:22.574Z,95.07
2019-05-15T01:06:22.466Z,94.70
2019-05-15T01:07:22.362Z,94.79
2019-05-15T01:08:22.311Z,94.51
2019-05-15T01:09:22.152Z,94.60
2019-05-15T01:10:22.046Z,94.89
2019-05-15T01:11:21.944Z,94.70
2019-05-15T01:12:21.834Z,94.60
2019-05-15T01:13:21.727Z,94.79
2019-05-15T01:14:21.623Z,95.17
2019-05-15T01:15:21.522Z,94.89
2019-05-15T01:16:21.411Z,95.74
2019-05-15T01:17:21.304Z,96.12
2019-05-15T01:18:21.200Z,96.17
2019-05-15T01:19:21.092Z,96.36
2019-05-15T01:20:20.991Z,96.36
2019-05-15T01:21:20.892Z,96.08
2019-05-15T01:22:20.778Z,96.45
2019-05-15T01:23:20.672Z,96.73
2019-05-15T01:24:20.561Z,96.26
2019-05-15T01:25:20.458Z,96.22
2019-05-15T01:26:20.352Z,97.50
2019-05-15T01:27:20.324Z,97.02
2019-05-15T01:28:20.157Z,96.92
2019-05-15T01:29:20.038Z,97.36
2019-05-15T01:30:19.929Z,97.12
2019-05-15T01:31:19.822Z,97.69
2019-05-15T01:32:19.717Z,97.40
2019-05-15T01:33:19.612Z,97.12
2019-05-15T01:34:19.507Z,97.12
2019-05-15T01:35:19.398Z,97.45
2019-05-15T01:36:19.451Z,97.12
2019-05-15T01:37:19.188Z,97.78
2019-05-15T01:38:19.081Z,97.69
2019-05-15T01:39:18.980Z,97.78
2019-05-15T01:40:18.870Z,97.88
2019-05-15T01:41:19.030Z,98.44
2019-05-15T01:42:18.759Z,98.35
2019-05-15T01:43:18.870Z,98.44
2019-05-15T01:44:18.445Z,98.82
2019-05-15T01:45:18.924Z,99.11
2019-05-15T01:46:19.073Z,98.35
2019-05-15T01:47:18.938Z,98.25
2019-05-15T01:48:18.988Z,98.35
2019-05-15T01:49:18.684Z,98.44
2019-05-15T01:50:18.508Z,98.82
2019-05-15T01:51:18.466Z,98.35
2019-05-15T01:52:18.727Z,98.92
2019-05-15T01:53:18.667Z,98.92
2019-05-15T01:54:18.641Z,98.92
2019-05-15T01:55:18.178Z,99.39
2019-05-15T01:56:18.853Z,99.30
2019-05-15T01:57:18.164Z,99.58
2019-05-15T01:58:18.657Z,98.82
2019-05-15T01:59:18.785Z,99.20
2019-05-15T02:00:18.696Z,98.73
2019-05-15T02:01:18.896Z,99.01
2019-05-15T02:02:18.577Z,98.92
2019-05-15T02:03:18.186Z,99.25
2019-05-15T02:04:16.326Z,98.77
2019-05-15T02:05:16.247Z,98.87
2019-05-15T02:06:18.551Z,98.58
2019-05-15T02:07:16.008Z,98.21
2019-05-15T02:08:15.908Z,98.21
2019-05-15T02:09:15.797Z,98.49
2019-05-15T02:10:15.692Z,97.26
2019-05-15T02:11:17.979Z,98.21
2019-05-15T02:12:15.479Z,98.39
2019-05-15T02:13:15.373Z,97.83
2019-05-15T02:14:15.268Z,97.45
2019-05-15T02:15:15.161Z,97.92
2019-05-15T02:16:15.054Z,97.35
2019-05-15T02:17:14.949Z,96.97
2019-05-15T02:18:14.842Z,97.26
2019-05-15T02:19:14.738Z,96.78
2019-05-15T02:20:14.631Z,97.26
2019-05-15T02:21:14.525Z,96.78
2019-05-15T02:22:14.438Z,96.69
2019-05-15T02:23:14.311Z,96.41
2019-05-15T02:24:14.242Z,97.26
2019-05-15T02:25:14.158Z,96.41
2019-05-15T02:26:13.993Z,96.22
2019-05-15T02:27:13.886Z,96.12
2019-05-15T02:28:13.781Z,95.74
2019-05-15T02:29:16.606Z,96.69
2019-05-15T02:30:26.717Z,95.84
2019-05-15T02:31:13.462Z,96.50
2019-05-15T02:32:13.359Z,95.93
2019-05-15T02:33:13.249Z,95.65
2019-05-15T02:34:13.147Z,96.59
2019-05-15T02:35:13.038Z,96.41
2019-05-15T02:36:12.934Z,96.31
2019-05-15T02:37:12.824Z,95.55
2019-05-15T02:38:15.403Z,96.03
2019-05-15T02:39:12.621Z,95.65
2019-05-15T02:40:12.514Z,95.74
2019-05-15T02:41:12.401Z,96.22
2019-05-15T02:42:12.299Z,95.84
2019-05-15T02:43:12.202Z,96.12
2019-05-15T02:44:12.126Z,95.36
2019-05-15T02:45:11.974Z,95.93
2019-05-15T02:46:11.869Z,95.45
2019-05-15T02:47:11.761Z,95.17
2019-05-15T02:48:11.659Z,95.55
2019-05-15T02:49:11.550Z,95.07
2019-05-15T02:50:11.493Z,95.45
2019-05-15T02:51:11.339Z,95.26
2019-05-15T02:52:11.232Z,94.70
2019-05-15T02:53:11.125Z,94.70
2019-05-15T02:54:11.017Z,94.51
2019-05-15T02:55:10.921Z,94.23
2019-05-15T02:56:10.811Z,94.42
2019-05-15T02:57:10.699Z,94.42
2019-05-15T02:58:10.796Z,95.07
2019-05-15T02:59:10.484Z,93.75
2019-05-15T03:00:11.192Z,94.46
2019-05-15T03:01:10.277Z,92.94
2019-05-15T03:02:10.429Z,93.13
2019-05-15T03:03:10.115Z,92.09
2019-05-15T03:04:09.955Z,91.81
2019-05-15T03:05:09.898Z,92.47
2019-05-15T03:06:10.124Z,92.00
2019-05-15T03:07:09.801Z,92.76
2019-05-15T03:08:09.863Z,91.90
2019-05-15T03:09:09.741Z,92.00
2019-05-15T03:10:09.613Z,92.38
2019-05-15T03:11:09.858Z,92.00
2019-05-15T03:12:09.227Z,92.09
2019-05-15T03:13:09.768Z,92.09
2019-05-15T03:14:09.360Z,92.19
2019-05-15T03:15:09.697Z,92.28
2019-05-15T03:16:10.149Z,92.09
2019-05-15T03:17:09.800Z,91.62
2019-05-15T03:18:09.551Z,91.90
2019-05-15T03:19:09.958Z,91.90
2019-05-15T03:20:10.306Z,92.00
2019-05-15T03:21:09.614Z,91.90
2019-05-15T03:22:09.731Z,91.90
2019-05-15T03:23:09.691Z,91.90
2019-05-15T03:24:10.210Z,91.90
2019-05-15T03:25:10.569Z,91.90
2019-05-15T03:26:08.890Z,91.81
2019-05-15T03:27:09.140Z,92.00
2019-05-15T03:28:10.577Z,91.90
2019-05-15T03:29:09.742Z,91.90
2019-05-15T03:30:12.204Z,91.24
2019-05-15T03:31:30.439Z,92.19
2019-05-15T03:32:24.430Z,91.71
2019-05-15T03:33:15.803Z,91.90
2019-05-15T03:34:18.510Z,91.71
2019-05-15T03:35:12.397Z,91.90
2019-05-15T03:36:12.479Z,91.43
2019-05-15T03:37:11.650Z,92.76
2019-05-15T03:38:09.191Z,91.90
2019-05-15T03:39:06.227Z,92.00
2019-05-15T03:40:06.127Z,91.90
2019-05-15T03:41:06.064Z,91.71
2019-05-15T03:42:05.919Z,92.09
2019-05-15T03:43:08.873Z,92.19
2019-05-15T03:44:05.695Z,92.00
2019-05-15T03:45:05.587Z,92.04
2019-05-15T03:46:08.742Z,93.46
2019-05-15T03:47:05.374Z,93.08
2019-05-15T03:48:05.268Z,92.99
2019-05-15T03:49:05.165Z,92.99
2019-05-15T03:50:05.061Z,92.99
2019-05-15T03:51:04.958Z,93.84
2019-05-15T03:52:04.843Z,93.84
2019-05-15T03:53:04.746Z,92.61
2019-05-15T03:54:04.630Z,93.75
2019-05-15T03:55:04.525Z,92.99
2019-05-15T03:56:04.430Z,93.84
2019-05-15T03:57:04.321Z,93.18
2019-05-15T03:58:04.208Z,93.46
2019-05-15T03:59:04.107Z,94.42
2019-05-15T04:00:04.060Z,94.79
2019-05-15T04:01:03.887Z,94.60
2019-05-15T04:02:03.780Z,94.89
2019-05-15T04:03:03.675Z,94.51
2019-05-15T04:04:03.571Z,94.32
2019-05-15T04:05:03.461Z,95.17
2019-05-15T04:06:03.356Z,95.74
2019-05-15T04:07:03.247Z,96.22
2019-05-15T04:08:03.142Z,95.69
2019-05-15T04:09:03.038Z,95.69
2019-05-15T04:10:02.933Z,95.79
2019-05-15T04:11:02.829Z,95.79
2019-05-15T04:12:02.723Z,95.69
2019-05-15T04:13:02.611Z,95.79
2019-05-15T04:14:02.539Z,96.36
2019-05-15T04:15:02.398Z,96.64
2019-05-15T04:16:02.292Z,96.64
2019-05-15T04:17:02.190Z,96.83
2019-05-15T04:18:02.087Z,96.45
2019-05-15T04:19:02.020Z,96.36
2019-05-15T04:20:01.873Z,97.69
2019-05-15T04:21:01.764Z,97.07
2019-05-15T04:22:01.657Z,97.36
2019-05-15T04:23:01.556Z,96.97
2019-05-15T04:24:01.446Z,96.78
2019-05-15T04:25:01.344Z,97.17
2019-05-15T04:26:01.245Z,97.07
2019-05-15T04:27:01.136Z,97.36
2019-05-15T04:28:01.027Z,96.69
2019-05-15T04:29:00.917Z,96.78
2019-05-15T04:30:00.813Z,97.17
2019-05-15T04:31:00.708Z,97.74
2019-05-15T04:32:05.375Z,96.97
2019-05-15T04:33:00.493Z,96.97
2019-05-15T04:34:00.400Z,96.97
2019-05-15T04:35:00.286Z,97.74
2019-05-15T04:36:00.178Z,97.36
2019-05-15T04:37:00.073Z,97.07
2019-05-15T04:38:00.035Z,97.17
2019-05-15T04:38:59.867Z,96.69
2019-05-15T04:39:59.962Z,97.17
2019-05-15T04:40:59.652Z,97.07
2019-05-15T04:41:59.548Z,97.17
2019-05-15T04:42:59.489Z,96.78
2019-05-15T04:43:59.736Z,98.30
2019-05-15T04:44:59.611Z,97.83
2019-05-15T04:46:02.847Z,96.88
2019-05-15T04:46:59.649Z,96.78
2019-05-15T04:47:58.935Z,97.45
2019-05-15T04:48:59.638Z,97.83
2019-05-15T04:49:59.039Z,97.26
2019-05-15T04:50:58.979Z,97.36
2019-05-15T04:52:03.136Z,97.74
2019-05-15T04:52:59.340Z,97.64
2019-05-15T04:53:58.729Z,97.83
2019-05-15T04:54:59.788Z,98.11
2019-05-15T04:55:59.773Z,98.26
2019-05-15T04:56:59.438Z,97.97
2019-05-15T04:57:59.251Z,98.07
2019-05-15T04:59:00.091Z,97.88
2019-05-15T04:59:58.758Z,97.22
2019-05-15T05:00:59.966Z,97.60
2019-05-15T05:02:16.394Z,97.22
2019-05-15T05:02:58.837Z,97.88
2019-05-15T05:03:58.910Z,97.88
2019-05-15T05:04:58.830Z,97.88
2019-05-15T05:05:59.167Z,97.78
2019-05-15T05:06:58.694Z,97.78
2019-05-15T05:07:59.537Z,98.26
2019-05-15T05:08:59.483Z,98.02
2019-05-15T05:09:59.433Z,96.83
2019-05-15T05:10:59.181Z,97.78
2019-05-15T05:11:58.253Z,97.92
2019-05-15T05:12:58.998Z,97.55
2019-05-15T05:13:58.939Z,96.98
2019-05-15T05:14:58.615Z,97.92
2019-05-15T05:15:58.474Z,97.64
2019-05-15T05:16:55.953Z,96.79
2019-05-15T05:17:58.413Z,96.03
2019-05-15T05:18:55.668Z,95.17
2019-05-15T05:19:55.561Z,95.55
2019-05-15T05:20:57.631Z,95.75
2019-05-15T05:21:55.354Z,95.55
2019-05-15T05:22:55.251Z,95.94
2019-05-15T05:23:55.146Z,95.94
2019-05-15T05:24:55.042Z,96.12
2019-05-15T05:25:54.937Z,96.03
2019-05-15T05:26:54.837Z,96.31
2019-05-15T05:27:54.730Z,95.75
2019-05-15T05:28:54.628Z,96.22
2019-05-15T05:29:54.522Z,94.98
2019-05-15T05:30:54.419Z,95.65
2019-05-15T05:31:54.320Z,95.27
2019-05-15T05:32:54.212Z,96.22
2019-05-15T05:33:54.112Z,95.36
2019-05-15T05:34:54.006Z,95.08
2019-05-15T05:35:53.925Z,95.94
2019-05-15T05:36:53.798Z,95.84
2019-05-15T05:37:53.693Z,95.12
2019-05-15T05:38:53.594Z,95.03
2019-05-15T05:39:53.485Z,93.99
2019-05-15T05:40:53.384Z,94.08
2019-05-15T05:41:53.280Z,95.12
2019-05-15T05:42:53.176Z,94.18
2019-05-15T05:43:53.075Z,91.89
2019-05-15T05:44:52.971Z,93.32
2019-05-15T05:45:52.872Z,93.51
2019-05-15T05:46:52.764Z,91.04
2019-05-15T05:47:52.661Z,89.71
2019-05-15T05:48:52.557Z,89.90
2019-05-15T05:49:52.452Z,89.23
2019-05-15T05:50:52.352Z,88.38
2019-05-15T05:51:52.246Z,89.42
2019-05-15T05:52:52.146Z,88.33
2019-05-15T05:53:52.054Z,88.23
2019-05-15T05:54:51.972Z,86.43
2019-05-15T05:55:53.543Z,86.71
2019-05-15T05:56:51.732Z,86.80
2019-05-15T05:57:51.630Z,87.19
2019-05-15T05:58:51.533Z,85.10
2019-05-15T05:59:51.426Z,84.72
2019-05-15T06:00:51.328Z,84.14
2019-05-15T06:01:51.219Z,83.86
2019-05-15T06:02:52.226Z,84.43
2019-05-15T06:03:51.014Z,83.29
2019-05-15T06:04:50.907Z,82.05
2019-05-15T06:05:50.816Z,81.96
2019-05-15T06:07:06.106Z,81.67
2019-05-15T06:07:50.602Z,81.77
2019-05-15T06:08:50.503Z,83.33
2019-05-15T06:09:50.398Z,82.48
2019-05-15T06:10:50.298Z,82.09
2019-05-15T06:11:50.191Z,80.57
2019-05-15T06:12:50.093Z,79.72
2019-05-15T06:13:52.460Z,79.81
2019-05-15T06:14:49.935Z,79.62
2019-05-15T06:15:49.796Z,78.29
2019-05-15T06:16:49.685Z,78.77
2019-05-15T06:17:49.580Z,76.96
2019-05-15T06:18:49.475Z,76.67
2019-05-15T06:19:49.374Z,77.05
2019-05-15T06:20:49.600Z,75.34
2019-05-15T06:21:57.205Z,76.01
2019-05-15T06:22:49.067Z,76.29
2019-05-15T06:23:55.703Z,74.87
2019-05-15T06:24:48.865Z,73.63
2019-05-15T06:25:48.760Z,73.44
2019-05-15T06:26:48.657Z,73.66
2019-05-15T06:27:48.556Z,72.81
2019-05-15T06:28:48.999Z,72.77
2019-05-15T06:29:48.564Z,72.49
2019-05-15T06:30:48.629Z,73.19
2019-05-15T06:31:48.388Z,73.10
2019-05-15T06:33:01.867Z,72.90
2019-05-15T06:33:49.113Z,73.19
2019-05-15T06:34:48.486Z,73.10
2019-05-15T06:35:49.061Z,71.57
2019-05-15T06:36:48.601Z,71.38
2019-05-15T06:37:48.463Z,71.42
2019-05-15T06:38:48.369Z,70.84
2019-05-15T06:39:48.155Z,69.89
2019-05-15T06:40:48.623Z,69.74
2019-05-15T06:41:48.268Z,67.45
2019-05-15T06:42:48.347Z,66.40
2019-05-15T06:43:48.405Z,66.05
2019-05-15T06:44:48.397Z,65.39
2019-05-15T06:45:48.647Z,65.42
2019-05-15T06:46:48.314Z,63.80
2019-05-15T06:47:48.213Z,63.42
2019-05-15T06:48:48.469Z,62.75
2019-05-15T06:49:48.470Z,62.18
2019-05-15T06:50:48.600Z,62.84
2019-05-15T06:51:48.546Z,61.22
2019-05-15T06:52:48.515Z,58.76
2019-05-15T06:53:45.921Z,56.50
2019-05-15T06:54:45.886Z,55.29
2019-05-15T06:55:48.297Z,54.52
2019-05-15T06:56:45.623Z,53.47
2019-05-15T06:57:45.525Z,53.69
2019-05-15T06:58:45.423Z,53.20
2019-05-15T06:59:45.331Z,53.37
2019-05-15T07:00:45.229Z,53.53
2019-05-15T07:01:45.134Z,54.80
2019-05-15T07:02:45.034Z,53.88
2019-05-15T07:03:44.947Z,52.37
2019-05-15T07:04:44.841Z,50.81
2019-05-15T07:05:44.743Z,51.10
2019-05-15T07:06:44.648Z,50.74
2019-05-15T07:07:44.548Z,49.81
2019-05-15T07:08:44.455Z,49.11
2019-05-15T07:09:44.362Z,49.88
2019-05-15T07:10:44.264Z,49.33
2019-05-15T07:11:44.167Z,49.71
2019-05-15T07:12:44.073Z,49.43
2019-05-15T07:13:43.977Z,48.88
2019-05-15T07:14:43.897Z,47.75
2019-05-15T07:15:43.857Z,48.04
2019-05-15T07:16:43.692Z,49.88
2019-05-15T07:17:43.598Z,49.66
2019-05-15T07:18:43.505Z,50.52
2019-05-15T07:19:43.414Z,50.89
2019-05-15T07:20:43.314Z,51.65
2019-05-15T07:21:43.221Z,52.10
2019-05-15T07:22:43.126Z,51.65
2019-05-15T07:23:43.036Z,50.72
2019-05-15T07:24:42.937Z,49.60
2019-05-15T07:25:42.847Z,49.91
2019-05-15T07:26:42.748Z,48.95
2019-05-15T07:27:42.655Z,48.95
2019-05-15T07:28:42.563Z,48.61
2019-05-15T07:29:42.469Z,47.42
2019-05-15T07:30:42.372Z,48.54
2019-05-15T07:31:42.279Z,49.09
2019-05-15T07:32:42.184Z,50.34
2019-05-15T07:33:43.851Z,50.65
2019-05-15T07:34:41.996Z,50.00
2019-05-15T07:35:41.902Z,49.05
2019-05-15T07:36:41.835Z,48.09
2019-05-15T07:37:41.777Z,47.25
2019-05-15T07:38:41.621Z,46.00
2019-05-15T07:39:41.536Z,44.80
2019-05-15T07:40:41.433Z,44.61
2019-05-15T07:41:41.339Z,44.42
2019-05-15T07:42:41.247Z,43.65
2019-05-15T07:43:41.154Z,43.77
2019-05-15T07:44:41.061Z,43.17
2019-05-15T07:45:43.620Z,44.54
2019-05-15T07:46:40.873Z,46.34
2019-05-15T07:47:40.781Z,47.99
2019-05-15T07:48:43.814Z,48.21
2019-05-15T07:49:40.594Z,46.77
2019-05-15T07:50:40.506Z,46.36
2019-05-15T07:51:40.408Z,47.11
2019-05-15T07:52:40.454Z,49.55
2019-05-15T07:53:40.305Z,50.67
2019-05-15T07:54:40.127Z,50.07
2019-05-15T07:55:40.038Z,50.55
2019-05-15T07:56:39.942Z,53.29
2019-05-15T07:57:39.886Z,54.25
2019-05-15T07:58:39.808Z,54.34
2019-05-15T07:59:39.743Z,54.72
2019-05-15T08:00:39.662Z,54.63
2019-05-15T08:01:39.473Z,54.72
2019-05-15T08:02:39.372Z,54.56
2019-05-15T08:03:53.871Z,54.37
2019-05-15T08:04:39.181Z,52.36
2019-05-15T08:05:54.692Z,49.69
2019-05-15T08:06:39.059Z,46.53
2019-05-15T08:07:39.010Z,45.67
2019-05-15T08:08:39.297Z,45.20
2019-05-15T08:09:39.127Z,45.20
2019-05-15T08:10:39.704Z,44.43
2019-05-15T08:11:39.187Z,44.72
2019-05-15T08:12:39.274Z,44.26
2019-05-15T08:13:38.464Z,44.05
2019-05-15T08:14:38.803Z,44.26
2019-05-15T08:15:38.305Z,43.98
2019-05-15T08:16:39.470Z,43.43
2019-05-15T08:17:59.284Z,42.83
2019-05-15T08:18:39.376Z,43.21
2019-05-15T08:19:38.373Z,44.17
2019-05-15T08:20:38.534Z,44.00
2019-05-15T08:21:38.500Z,44.48
2019-05-15T08:22:38.251Z,43.35
2019-05-15T08:23:39.070Z,42.30
2019-05-15T08:24:39.196Z,42.01
2019-05-15T08:25:38.918Z,42.13
2019-05-15T08:26:37.944Z,41.94
2019-05-15T08:27:38.265Z,41.94
2019-05-15T08:28:38.264Z,41.53
2019-05-15T08:29:38.305Z,41.74
2019-05-15T08:30:38.753Z,41.63
2019-05-15T08:31:38.668Z,41.91
2019-05-15T08:32:38.701Z,41.80
2019-05-15T08:33:38.712Z,41.91
2019-05-15T08:34:38.319Z,41.32
2019-05-15T08:35:38.499Z,41.80
2019-05-15T08:36:38.384Z,42.27
2019-05-15T08:37:38.294Z,42.56
2019-05-15T08:38:38.149Z,41.99
2019-05-15T08:39:38.008Z,42.44
2019-05-15T08:40:40.752Z,42.64
2019-05-15T08:41:35.633Z,43.30
2019-05-15T08:42:35.507Z,43.04
2019-05-15T08:43:35.412Z,43.12
2019-05-15T08:44:35.317Z,43.59
2019-05-15T08:45:35.220Z,43.21
2019-05-15T08:46:35.130Z,44.17
2019-05-15T08:47:35.029Z,44.34
2019-05-15T08:48:34.931Z,45.22
2019-05-15T08:49:34.847Z,45.41
2019-05-15T08:50:34.735Z,44.65
2019-05-15T08:51:34.643Z,44.84
2019-05-15T08:52:34.544Z,44.62
2019-05-15T08:53:34.453Z,45.41
2019-05-15T08:54:34.347Z,45.05
2019-05-15T08:55:34.259Z,44.59
2019-05-15T08:56:34.155Z,43.26
2019-05-15T08:57:34.074Z,43.35
2019-05-15T08:58:33.962Z,42.68
2019-05-15T08:59:33.862Z,43.54
2019-05-15T09:00:33.771Z,42.68
2019-05-15T09:01:33.722Z,42.68
2019-05-15T09:02:33.576Z,43.63
2019-05-15T09:03:33.477Z,43.73
2019-05-15T09:04:35.061Z,43.16
2019-05-15T09:05:33.284Z,42.77
2019-05-15T09:06:33.188Z,41.82
2019-05-15T09:07:33.092Z,42.01
2019-05-15T09:08:32.997Z,42.30
2019-05-15T09:09:32.898Z,42.30
2019-05-15T09:10:32.801Z,42.66
2019-05-15T09:11:32.707Z,43.04
2019-05-15T09:12:32.612Z,43.33
2019-05-15T09:13:32.516Z,43.71
2019-05-15T09:14:32.417Z,43.90
2019-05-15T09:15:32.337Z,43.92
2019-05-15T09:16:32.223Z,43.54
2019-05-15T09:17:32.126Z,43.16
2019-05-15T09:18:32.038Z,42.68
2019-05-15T09:19:31.936Z,42.13
2019-05-15T09:20:31.843Z,41.96
2019-05-15T09:21:31.745Z,41.28
2019-05-15T09:22:31.702Z,41.07
2019-05-15T09:23:31.574Z,40.90
2019-05-15T09:24:31.454Z,40.81
2019-05-15T09:25:31.359Z,40.31
2019-05-15T09:26:31.262Z,40.90
2019-05-15T09:27:31.251Z,40.61
2019-05-15T09:28:31.158Z,40.23
2019-05-15T09:29:31.060Z,40.52
2019-05-15T09:30:30.966Z,40.33
2019-05-15T09:31:30.869Z,40.81
2019-05-15T09:32:30.773Z,41.67
2019-05-15T09:33:30.689Z,41.77
2019-05-15T09:34:46.741Z,41.55
2019-05-15T09:35:30.488Z,42.49
2019-05-15T09:36:30.398Z,42.53
2019-05-15T09:37:33.439Z,42.34
2019-05-15T09:38:30.230Z,41.40
2019-05-15T09:39:30.104Z,40.83
2019-05-15T09:40:42.249Z,39.83
2019-05-15T09:41:29.915Z,39.04
2019-05-15T09:42:29.819Z,39.53
2019-05-15T09:43:29.724Z,39.53
2019-05-15T09:44:29.708Z,40.00
2019-05-15T09:45:29.535Z,40.00
2019-05-15T09:46:29.446Z,39.04
2019-05-15T09:47:29.629Z,39.26
2019-05-15T09:48:29.251Z,39.54
2019-05-15T09:49:29.156Z,39.95
2019-05-15T09:50:29.068Z,39.47
2019-05-15T09:51:29.117Z,39.06
2019-05-15T09:52:29.874Z,38.43
2019-05-15T09:53:28.784Z,37.97
2019-05-15T09:54:29.327Z,37.22
2019-05-15T09:55:28.609Z,37.14
2019-05-15T09:56:29.118Z,35.99
2019-05-15T09:57:30.263Z,37.34
2019-05-15T09:58:30.310Z,36.86
2019-05-15T09:59:28.312Z,39.48
2019-05-15T10:00:29.284Z,40.92
2019-05-15T10:01:28.500Z,41.00
2019-05-15T10:02:28.433Z,42.24
2019-05-15T10:03:28.227Z,41.96
2019-05-15T10:04:28.689Z,43.18
2019-05-15T10:05:28.113Z,42.91
2019-05-15T10:06:28.649Z,43.87
2019-05-15T10:07:28.566Z,43.49
2019-05-15T10:08:29.283Z,43.10
2019-05-15T10:09:28.420Z,43.20
2019-05-15T10:10:28.459Z,43.70
2019-05-15T10:11:28.936Z,43.03
2019-05-15T10:12:34.364Z,43.24
2019-05-15T10:13:28.823Z,42.10
2019-05-15T10:14:29.415Z,42.10
2019-05-15T10:15:26.747Z,43.03
2019-05-15T10:16:26.656Z,43.20
2019-05-15T10:17:28.943Z,43.39
2019-05-15T10:18:28.245Z,44.26
2019-05-15T10:19:28.854Z,44.54
2019-05-15T10:20:28.963Z,44.06
2019-05-15T10:21:29.629Z,43.87
2019-05-15T10:22:28.174Z,44.09
2019-05-15T10:23:28.863Z,43.41
2019-05-15T10:24:27.981Z,43.90
2019-05-15T10:25:28.021Z,43.73
2019-05-15T10:26:25.715Z,43.23
2019-05-15T10:27:25.662Z,43.82
2019-05-15T10:28:25.603Z,43.44
2019-05-15T10:29:25.434Z,43.24
2019-05-15T10:30:28.231Z,43.23
2019-05-15T10:31:25.245Z,43.03
2019-05-15T10:32:25.067Z,42.94
2019-05-15T10:33:24.972Z,43.20
2019-05-15T10:34:24.875Z,44.54
2019-05-15T10:35:28.586Z,44.26
2019-05-15T10:36:24.691Z,44.37
2019-05-15T10:37:24.596Z,44.54
2019-05-15T10:38:24.502Z,44.26
2019-05-15T10:39:24.405Z,44.23
2019-05-15T10:40:24.311Z,46.03
2019-05-15T10:41:24.217Z,47.18
2019-05-15T10:42:24.128Z,47.39
2019-05-15T10:43:24.033Z,47.11
2019-05-15T10:44:23.930Z,46.82
2019-05-15T10:45:23.836Z,46.82
2019-05-15T10:46:23.739Z,47.68
2019-05-15T10:47:23.645Z,47.08
2019-05-15T10:48:23.592Z,47.75
2019-05-15T10:49:23.520Z,48.33
2019-05-15T10:50:23.362Z,47.85
2019-05-15T10:51:23.262Z,47.75
2019-05-15T10:52:23.165Z,47.49
2019-05-15T10:53:23.073Z,47.08
2019-05-15T10:54:22.991Z,46.98
2019-05-15T10:55:22.879Z,47.27
2019-05-15T10:56:22.805Z,47.94
2019-05-15T10:57:22.692Z,47.66
2019-05-15T10:58:22.593Z,48.13
2019-05-15T10:59:22.496Z,47.85
2019-05-15T11:00:22.402Z,48.61
2019-05-15T11:01:22.303Z,49.00
2019-05-15T11:02:22.206Z,49.09
2019-05-15T11:03:22.110Z,49.02
2019-05-15T11:04:22.013Z,48.54
2019-05-15T11:05:21.927Z,48.09
2019-05-15T11:06:21.823Z,47.71
2019-05-15T11:07:21.732Z,47.89
2019-05-15T11:08:21.628Z,47.42
2019-05-15T11:09:21.579Z,47.89
2019-05-15T11:10:21.512Z,47.71
2019-05-15T11:11:21.343Z,47.13
2019-05-15T11:12:21.246Z,47.03
2019-05-15T11:13:21.149Z,47.20
2019-05-15T11:14:21.054Z,47.30
2019-05-15T11:15:20.987Z,47.80
2019-05-15T11:16:21.246Z,47.99
2019-05-15T11:17:20.778Z,47.25
2019-05-15T11:18:20.670Z,47.32
2019-05-15T11:19:20.572Z,47.71
2019-05-15T11:20:20.478Z,47.51
2019-05-15T11:21:20.383Z,47.39
2019-05-15T11:22:20.285Z,47.03
2019-05-15T11:23:20.507Z,47.15
2019-05-15T11:24:20.099Z,46.19
2019-05-15T11:25:19.996Z,46.10
2019-05-15T11:26:20.024Z,46.19
2019-05-15T11:27:19.803Z,45.59
2019-05-15T11:28:19.721Z,46.10
2019-05-15T11:29:19.613Z,46.19
2019-05-15T11:30:19.558Z,45.89
2019-05-15T11:31:19.494Z,46.08
2019-05-15T11:32:19.329Z,45.69
2019-05-15T11:33:19.398Z,45.89
2019-05-15T11:34:19.137Z,46.25
2019-05-15T11:35:19.097Z,46.36
2019-05-15T11:36:18.943Z,46.75
2019-05-15T11:37:19.027Z,45.98
2019-05-15T11:38:19.534Z,45.89
2019-05-15T11:39:18.659Z,45.79
2019-05-15T11:40:18.862Z,45.79
2019-05-15T11:41:19.200Z,45.86
2019-05-15T11:42:20.277Z,45.96
2019-05-15T11:43:19.738Z,45.96
2019-05-15T11:44:18.767Z,46.05
2019-05-15T11:45:18.550Z,46.15
2019-05-15T11:46:18.536Z,46.15
2019-05-15T11:47:18.408Z,46.12
2019-05-15T11:48:20.616Z,46.44
2019-05-15T11:49:18.208Z,47.01
2019-05-15T11:50:20.508Z,46.25
2019-05-15T11:51:18.457Z,46.15
2019-05-15T11:52:18.780Z,45.59
2019-05-15T11:53:19.247Z,45.52
2019-05-15T11:54:19.124Z,43.97
2019-05-15T11:55:17.112Z,44.54
2019-05-15T11:56:18.850Z,44.37
2019-05-15T11:57:19.046Z,43.80
2019-05-15T11:58:18.987Z,43.63
2019-05-15T11:59:18.464Z,43.13
2019-05-15T12:00:26.179Z,43.32
2019-05-15T12:01:19.151Z,43.39
2019-05-15T12:02:18.896Z,44.26
2019-05-15T12:03:18.658Z,44.64
2019-05-15T12:04:27.612Z,43.30
2019-05-15T12:05:18.078Z,44.16
2019-05-15T12:06:22.436Z,44.90
2019-05-15T12:07:18.129Z,45.29
2019-05-15T12:08:17.990Z,45.69
2019-05-15T12:09:18.574Z,44.26
2019-05-15T12:10:18.197Z,44.26
2019-05-15T12:11:30.849Z,44.83
2019-05-15T12:12:17.927Z,44.16
2019-05-15T12:13:15.433Z,44.64
2019-05-15T12:14:18.620Z,44.26
2019-05-15T12:15:15.194Z,44.73
2019-05-15T12:16:15.099Z,45.31
2019-05-15T12:17:15.556Z,45.02
2019-05-15T12:18:14.907Z,44.54
2019-05-15T12:19:17.406Z,44.26
2019-05-15T12:20:14.719Z,44.45
2019-05-15T12:21:19.089Z,44.54
2019-05-15T12:22:14.526Z,45.12
2019-05-15T12:23:14.428Z,45.50
2019-05-15T12:24:14.334Z,44.27
2019-05-15T12:25:14.237Z,44.37
2019-05-15T12:26:14.140Z,44.49
2019-05-15T12:27:18.220Z,43.91
2019-05-15T12:28:13.949Z,43.91
2019-05-15T12:29:13.857Z,43.24
2019-05-15T12:30:13.769Z,43.44
2019-05-15T12:31:13.666Z,43.10
2019-05-15T12:33:13.469Z,44.26
2019-05-15T12:34:13.395Z,44.83
2019-05-15T12:35:13.287Z,44.64
2019-05-15T12:36:13.184Z,44.81
2019-05-15T12:37:13.089Z,45.50
2019-05-15T12:38:12.986Z,44.62
2019-05-15T12:39:13.728Z,45.02
2019-05-15T13:00:10.888Z,43.77
2019-05-15T13:01:16.874Z,43.20
2019-05-15T13:02:10.677Z,43.30
2019-05-15T13:03:10.582Z,43.20
2019-05-15T13:04:10.487Z,43.59
2019-05-15T13:05:10.388Z,44.71
2019-05-15T13:06:10.290Z,44.06
2019-05-15T13:07:13.980Z,43.87
2019-05-15T13:08:10.098Z,43.27
2019-05-15T13:09:10.000Z,43.76
2019-05-15T13:10:09.901Z,44.23
2019-05-15T13:11:14.773Z,44.52
2019-05-15T13:12:09.712Z,43.39